createdAt,value
2022-12-11T00:02:11.545Z,4.13
2022-12-11T00:04:38.631Z,3.88
2022-12-11T00:07:05.581Z,3.13
2022-12-11T00:09:32.661Z,3.58
2022-12-11T00:11:59.743Z,2.95
2022-12-11T00:14:26.713Z,3.40
2022-12-11T00:16:53.685Z,3.20
2022-12-11T00:19:20.810Z,3.55
2022-12-11T00:21:47.705Z,3.95
2022-12-11T00:24:14.607Z,3.83
2022-12-11T00:26:41.992Z,3.70
2022-12-11T00:29:14.706Z,3.10
2022-12-11T00:31:42.481Z,3.33
2022-12-11T00:34:09.473Z,2.85
2022-12-11T00:36:36.447Z,3.55
2022-12-11T00:39:04.870Z,3.63
2022-12-11T00:41:32.341Z,3.20
2022-12-11T00:43:59.427Z,3.53
2022-12-11T00:46:26.567Z,2.85
2022-12-11T00:48:53.707Z,3.15
2022-12-11T00:51:20.552Z,3.85
2022-12-11T00:53:47.571Z,3.17
2022-12-11T00:56:17.203Z,3.30
2022-12-11T00:58:46.065Z,3.47
2022-12-11T01:01:16.681Z,3.58
2022-12-11T01:03:43.804Z,3.22
2022-12-11T01:06:15.616Z,3.22
2022-12-11T01:08:43.332Z,3.47
2022-12-11T01:11:12.373Z,3.22
2022-12-11T01:13:40.609Z,3.55
2022-12-11T01:16:14.099Z,3.28
2022-12-11T01:18:41.250Z,2.83
2022-12-11T01:21:13.828Z,3.38
2022-12-11T01:23:40.979Z,3.40
2022-12-11T01:26:09.874Z,3.20
2022-12-11T01:28:37.189Z,3.75
2022-12-11T01:31:09.101Z,3.28
2022-12-11T01:33:36.050Z,2.95
2022-12-11T01:36:08.989Z,3.03
2022-12-11T01:38:36.185Z,3.15
2022-12-11T01:41:05.108Z,3.33
2022-12-11T01:43:32.349Z,3.55
2022-12-11T01:45:59.431Z,3.03
2022-12-11T01:48:30.469Z,3.25
2022-12-11T01:51:03.247Z,3.30
2022-12-11T01:53:35.161Z,3.05
2022-12-11T01:56:03.749Z,3.35
2022-12-11T01:58:35.339Z,3.25
2022-12-11T02:01:03.737Z,3.15
2022-12-11T02:03:30.948Z,3.85
2022-12-11T02:06:02.717Z,2.85
2022-12-11T02:08:30.028Z,3.55
2022-12-11T02:11:09.203Z,3.53
2022-12-11T02:13:55.523Z,3.70
2022-12-11T02:16:50.950Z,2.90
2022-12-11T02:19:29.937Z,3.08
2022-12-11T02:21:58.220Z,3.22
2022-12-11T02:25:05.323Z,2.70
2022-12-11T02:27:35.156Z,3.20
2022-12-11T02:30:07.134Z,3.17
2022-12-11T02:32:49.521Z,3.10
2022-12-11T02:35:28.492Z,3.40
2022-12-11T02:38:01.791Z,3.22
2022-12-11T02:40:31.992Z,3.17
2022-12-11T02:43:02.929Z,3.50
2022-12-11T02:45:31.401Z,3.42
2022-12-11T02:48:01.213Z,3.38
2022-12-11T02:50:29.332Z,3.88
2022-12-11T02:52:58.374Z,3.65
2022-12-11T02:55:28.623Z,3.53
2022-12-11T02:58:07.397Z,3.42
2022-12-11T03:00:34.162Z,3.22
2022-12-11T03:03:02.550Z,3.08
2022-12-11T03:05:30.615Z,2.97
2022-12-11T03:07:58.008Z,3.67
2022-12-11T03:10:25.381Z,3.70
2022-12-11T03:12:55.876Z,3.17
2022-12-11T03:15:30.500Z,3.30
2022-12-11T03:18:20.430Z,3.58
2022-12-11T03:21:13.238Z,3.20
2022-12-11T03:23:58.493Z,3.55
2022-12-11T03:26:25.394Z,3.83
2022-12-11T03:29:00.442Z,3.28
2022-12-11T03:31:37.705Z,3.45
2022-12-11T03:34:28.789Z,3.60
2022-12-11T03:36:58.969Z,3.58
2022-12-11T03:39:36.337Z,3.63
2022-12-11T03:42:06.923Z,3.67
2022-12-11T03:44:36.224Z,4.20
2022-12-11T03:47:06.712Z,4.65
2022-12-11T03:49:41.933Z,3.70
2022-12-11T03:52:11.136Z,4.15
2022-12-11T03:54:40.241Z,3.75
2022-12-11T03:57:09.802Z,4.18
2022-12-11T03:59:36.853Z,3.75
2022-12-11T04:02:11.148Z,3.58
2022-12-11T04:04:39.575Z,4.05
2022-12-11T04:07:07.228Z,3.50
2022-12-11T04:09:34.698Z,3.88
2022-12-11T04:12:01.667Z,4.10
2022-12-11T04:14:47.033Z,3.70
2022-12-11T04:17:33.920Z,3.80
2022-12-11T04:20:39.238Z,3.45
2022-12-11T04:23:28.116Z,4.15
2022-12-11T04:25:55.033Z,4.47
2022-12-11T04:28:21.982Z,3.65
2022-12-11T04:30:50.299Z,3.35
2022-12-11T04:33:17.423Z,3.92
2022-12-11T04:35:44.859Z,3.90
2022-12-11T04:38:11.857Z,4.22
2022-12-11T04:40:38.916Z,3.50
2022-12-11T04:43:06.175Z,4.60
2022-12-11T04:45:33.758Z,4.45
2022-12-11T04:48:00.754Z,4.15
2022-12-11T04:50:27.587Z,3.55
2022-12-11T04:52:55.319Z,4.00
2022-12-11T04:55:22.523Z,4.13
2022-12-11T04:57:49.407Z,3.75
2022-12-11T05:00:17.708Z,4.38
2022-12-11T05:02:44.626Z,4.18
2022-12-11T05:05:12.147Z,5.32
2022-12-11T05:07:39.936Z,4.75
2022-12-11T05:10:07.576Z,3.67
2022-12-11T05:12:34.636Z,4.35
2022-12-11T05:15:01.530Z,3.40
2022-12-11T05:17:28.666Z,4.68
2022-12-11T05:19:55.546Z,3.78
2022-12-11T05:22:22.587Z,4.07
2022-12-11T05:24:49.569Z,4.53
2022-12-11T05:27:16.457Z,3.55
2022-12-11T05:29:43.448Z,3.55
2022-12-11T05:32:10.424Z,3.45
2022-12-11T05:34:37.197Z,4.00
2022-12-11T05:37:03.959Z,4.15
2022-12-11T05:39:31.014Z,4.22
2022-12-11T05:41:57.953Z,3.88
2022-12-11T05:44:25.507Z,3.95
2022-12-11T05:46:52.529Z,3.83
2022-12-11T05:49:20.139Z,4.25
2022-12-11T05:51:47.925Z,3.78
2022-12-11T05:54:14.966Z,3.95
2022-12-11T05:56:41.877Z,4.30
2022-12-11T05:59:08.889Z,3.83
2022-12-11T06:01:38.788Z,4.05
2022-12-11T06:04:07.575Z,4.20
2022-12-11T06:06:35.286Z,3.78
2022-12-11T06:09:02.408Z,3.58
2022-12-11T06:11:32.801Z,4.05
2022-12-11T06:14:01.947Z,3.83
2022-12-11T06:16:29.034Z,3.97
2022-12-11T06:18:58.460Z,4.15
2022-12-11T06:21:28.593Z,4.10
2022-12-11T06:23:57.211Z,3.50
2022-12-11T06:26:24.449Z,3.95
2022-12-11T06:28:51.598Z,3.85
2022-12-11T06:31:19.246Z,4.30
2022-12-11T06:33:46.598Z,3.70
2022-12-11T06:36:16.584Z,4.18
2022-12-11T06:38:44.481Z,3.83
2022-12-11T06:41:11.444Z,3.97
2022-12-11T06:43:40.530Z,4.00
2022-12-11T06:46:13.522Z,3.90
2022-12-11T06:48:42.389Z,3.83
2022-12-11T06:51:15.482Z,3.80
2022-12-11T06:53:43.158Z,2.75
2022-12-11T06:56:13.717Z,3.72
2022-12-11T06:58:41.825Z,3.50
2022-12-11T07:01:21.717Z,3.15
2022-12-11T07:03:49.033Z,3.15
2022-12-11T07:06:16.272Z,3.42
2022-12-11T07:08:43.788Z,3.55
2022-12-11T07:11:13.409Z,3.05
2022-12-11T07:13:42.351Z,3.20
2022-12-11T07:16:11.311Z,3.28
2022-12-11T07:18:43.666Z,3.55
2022-12-11T07:21:13.279Z,2.83
2022-12-11T07:23:40.971Z,3.00
2022-12-11T07:26:11.546Z,3.35
2022-12-11T07:28:39.009Z,3.42
2022-12-11T07:31:11.926Z,2.72
2022-12-11T07:33:39.307Z,3.25
2022-12-11T07:36:09.388Z,3.30
2022-12-11T07:38:36.801Z,3.00
2022-12-11T07:41:06.025Z,3.15
2022-12-11T07:43:36.717Z,2.80
2022-12-11T07:46:13.484Z,3.03
2022-12-11T07:48:42.039Z,2.90
2022-12-11T07:51:15.356Z,3.10
2022-12-11T07:53:44.272Z,3.15
2022-12-11T07:56:11.306Z,3.60
2022-12-11T07:58:39.218Z,3.08
2022-12-11T08:01:14.338Z,3.97
2022-12-11T08:03:41.319Z,3.28
2022-12-11T08:06:08.362Z,2.95
2022-12-11T08:08:35.240Z,3.00
2022-12-11T08:11:03.125Z,2.95
2022-12-11T08:13:30.053Z,3.45
2022-12-11T08:15:57.033Z,3.42
2022-12-11T08:18:24.083Z,3.20
2022-12-11T08:20:51.160Z,3.10
2022-12-11T08:23:18.111Z,2.67
2022-12-11T08:25:45.118Z,2.75
2022-12-11T08:28:12.192Z,3.10
2022-12-11T08:30:40.247Z,3.22
2022-12-11T08:33:07.650Z,2.97
2022-12-11T08:35:39.985Z,3.03
2022-12-11T08:38:06.996Z,3.10
2022-12-11T08:40:33.955Z,3.60
2022-12-11T08:43:01.005Z,3.22
2022-12-11T08:45:27.977Z,3.17
2022-12-11T08:47:54.759Z,3.50
2022-12-11T08:50:21.683Z,3.17
2022-12-11T08:52:48.460Z,3.35
2022-12-11T08:55:15.464Z,2.80
2022-12-11T08:57:42.630Z,3.03
2022-12-11T09:00:12.613Z,4.25
2022-12-11T09:02:39.742Z,3.05
2022-12-11T09:05:08.490Z,3.50
2022-12-11T09:07:36.878Z,3.47
2022-12-11T09:10:06.306Z,3.10
2022-12-11T09:12:34.721Z,3.70
2022-12-11T09:15:01.738Z,3.10
2022-12-11T09:17:28.675Z,3.42
2022-12-11T09:19:55.536Z,3.20
2022-12-11T09:22:22.513Z,3.38
2022-12-11T09:24:49.461Z,3.17
2022-12-11T09:27:16.551Z,3.13
2022-12-11T09:29:43.673Z,3.03
2022-12-11T09:32:10.586Z,4.07
2022-12-11T09:34:37.589Z,3.60
2022-12-11T09:37:04.567Z,3.08
2022-12-11T09:39:31.572Z,3.40
2022-12-11T09:42:50.898Z,4.15
2022-12-11T09:45:18.349Z,2.95
2022-12-11T09:47:50.349Z,3.03
2022-12-11T09:50:24.561Z,3.78
2022-12-11T09:53:17.006Z,4.20
2022-12-11T09:56:14.718Z,3.30
2022-12-11T09:59:10.887Z,3.40
2022-12-11T10:01:46.767Z,3.20
2022-12-11T10:04:41.123Z,3.50
2022-12-11T10:07:34.006Z,2.87
2022-12-11T10:10:03.919Z,3.47
2022-12-11T10:12:30.757Z,3.33
2022-12-11T10:15:22.212Z,4.03
2022-12-11T10:17:49.668Z,4.00
2022-12-11T10:20:22.668Z,3.42
2022-12-11T10:22:52.099Z,3.92
2022-12-11T10:25:27.329Z,3.92
2022-12-11T10:27:54.663Z,3.90
2022-12-11T10:30:21.931Z,3.88
2022-12-11T10:33:14.578Z,3.85
2022-12-11T10:35:58.645Z,3.45
2022-12-11T10:38:32.693Z,3.80
2022-12-11T10:41:12.063Z,2.63
2022-12-11T10:43:40.476Z,3.72
2022-12-11T10:46:18.089Z,3.30
2022-12-11T10:48:48.161Z,3.42
2022-12-11T10:51:15.825Z,3.13
2022-12-11T10:53:44.548Z,3.33
2022-12-11T10:56:12.199Z,3.80
2022-12-11T10:58:48.860Z,3.50
2022-12-11T11:01:20.073Z,3.83
2022-12-11T11:03:58.371Z,4.00
2022-12-11T11:06:26.209Z,4.18
2022-12-11T11:08:55.856Z,3.72
2022-12-11T11:11:38.444Z,3.58
2022-12-11T11:14:17.831Z,3.72
2022-12-11T11:16:50.459Z,3.47
2022-12-11T11:19:33.677Z,4.20
2022-12-11T11:22:05.550Z,3.65
2022-12-11T11:24:52.097Z,3.65
2022-12-11T11:27:25.088Z,3.85
2022-12-11T11:29:58.497Z,3.58
2022-12-11T11:32:30.386Z,3.95
2022-12-11T11:35:15.200Z,3.72
2022-12-11T11:37:45.801Z,4.57
2022-12-11T11:40:22.057Z,3.13
2022-12-11T11:43:19.288Z,3.40
2022-12-11T11:45:55.470Z,4.00
2022-12-11T11:48:46.157Z,3.97
2022-12-11T11:51:19.750Z,4.18
2022-12-11T11:53:51.692Z,2.93
2022-12-11T11:56:21.867Z,3.58
2022-12-11T11:58:57.846Z,3.85
2022-12-11T12:01:25.088Z,3.63
2022-12-11T12:03:52.762Z,3.30
2022-12-11T12:06:28.875Z,3.30
2022-12-11T12:08:58.843Z,3.75
2022-12-11T12:11:45.634Z,3.63
2022-12-11T12:14:51.600Z,3.20
2022-12-11T12:17:42.094Z,4.15
2022-12-11T12:20:21.350Z,3.65
2022-12-11T12:23:15.556Z,3.03
2022-12-11T12:25:51.331Z,3.90
2022-12-11T12:28:55.184Z,3.67
2022-12-11T12:31:40.515Z,3.30
2022-12-11T12:34:24.373Z,4.00
2022-12-11T12:37:17.673Z,3.45
2022-12-11T12:40:09.318Z,3.88
2022-12-11T12:43:20.765Z,3.67
2022-12-11T12:46:05.359Z,3.63
2022-12-11T12:48:33.010Z,4.00
2022-12-11T12:51:00.482Z,3.80
2022-12-11T12:53:32.660Z,3.50
2022-12-11T12:56:01.769Z,3.63
2022-12-11T12:58:48.321Z,3.53
2022-12-11T13:01:22.291Z,4.05
2022-12-11T13:03:55.259Z,3.38
2022-12-11T13:06:29.476Z,3.65
2022-12-11T13:08:57.233Z,3.38
2022-12-11T13:11:33.672Z,3.67
2022-12-11T13:14:15.626Z,4.32
2022-12-11T13:16:45.246Z,3.88
2022-12-11T13:19:24.102Z,3.33
2022-12-11T13:22:06.411Z,4.57
2022-12-11T13:24:34.475Z,4.35
2022-12-11T13:27:22.310Z,3.70
2022-12-11T13:29:49.281Z,3.72
2022-12-11T13:32:18.927Z,4.18
2022-12-11T13:34:53.813Z,3.85
2022-12-11T13:37:43.384Z,4.18
2022-12-11T13:40:22.745Z,4.45
2022-12-11T13:42:57.692Z,4.30
2022-12-11T13:45:39.878Z,3.90
2022-12-11T13:48:19.749Z,4.43
2022-12-11T13:50:47.176Z,3.95
2022-12-11T13:53:16.535Z,3.85
2022-12-11T13:55:44.116Z,4.55
2022-12-11T13:58:21.968Z,3.92
2022-12-11T14:01:07.833Z,3.85
2022-12-11T14:03:35.691Z,4.90
2022-12-11T14:06:03.913Z,4.05
2022-12-11T14:08:35.671Z,4.63
2022-12-11T14:11:03.243Z,4.78
2022-12-11T14:13:36.501Z,4.78
2022-12-11T14:16:04.409Z,4.32
2022-12-11T14:18:34.045Z,4.38
2022-12-11T14:21:06.092Z,4.43
2022-12-11T14:23:36.240Z,4.70
2022-12-11T14:26:25.235Z,4.88
2022-12-11T14:28:52.957Z,4.65
2022-12-11T14:31:34.611Z,4.95
2022-12-11T14:34:22.307Z,4.60
2022-12-11T14:36:49.790Z,5.57
2022-12-11T14:39:23.453Z,5.13
2022-12-11T14:42:14.576Z,5.32
2022-12-11T14:44:56.582Z,4.75
2022-12-11T14:47:27.785Z,4.93
2022-12-11T14:50:08.353Z,4.75
2022-12-11T14:52:43.434Z,4.65
2022-12-11T14:55:17.990Z,4.75
2022-12-11T14:57:48.940Z,4.97
2022-12-11T15:00:28.207Z,4.85
2022-12-11T15:03:17.974Z,5.20
2022-12-11T15:05:53.057Z,5.82
2022-12-11T15:08:25.664Z,5.25
2022-12-11T15:11:10.293Z,4.85
2022-12-11T15:13:52.662Z,5.53
2022-12-11T15:16:21.161Z,5.65
2022-12-11T15:18:53.608Z,5.30
2022-12-11T15:21:30.027Z,5.43
2022-12-11T15:23:59.576Z,6.20
2022-12-11T15:26:36.966Z,5.65
2022-12-11T15:29:07.479Z,5.82
2022-12-11T15:31:37.888Z,4.72
2022-12-11T15:34:23.109Z,4.78
2022-12-11T15:36:49.995Z,5.80
2022-12-11T15:39:17.174Z,4.60
2022-12-11T15:41:44.339Z,6.43
2022-12-11T15:44:20.231Z,4.53
2022-12-11T15:46:47.300Z,5.25
2022-12-11T15:49:14.680Z,5.25
2022-12-11T15:51:43.387Z,5.60
2022-12-11T15:54:10.565Z,5.47
2022-12-11T15:56:37.321Z,5.68
2022-12-11T15:59:06.963Z,6.03
2022-12-11T16:01:34.176Z,5.97
2022-12-11T16:04:04.878Z,5.60
2022-12-11T16:06:33.328Z,5.57
2022-12-11T16:09:00.396Z,6.28
2022-12-11T16:11:27.103Z,5.85
2022-12-11T16:13:53.862Z,5.80
2022-12-11T16:16:20.951Z,6.22
2022-12-11T16:18:47.853Z,5.43
2022-12-11T16:21:19.883Z,5.20
2022-12-11T16:23:48.470Z,4.80
2022-12-11T16:26:16.063Z,5.38
2022-12-11T16:28:43.549Z,5.65
2022-12-11T16:31:15.211Z,5.07
2022-12-11T16:33:42.194Z,5.72
2022-12-11T16:36:27.112Z,4.93
2022-12-11T16:38:54.517Z,4.55
2022-12-11T16:41:23.110Z,5.57
2022-12-11T16:43:50.078Z,5.82
2022-12-11T16:46:21.409Z,5.10
2022-12-11T16:48:48.465Z,5.05
2022-12-11T16:51:16.417Z,4.85
2022-12-11T16:53:43.175Z,4.68
2022-12-11T16:56:10.237Z,4.93
2022-12-11T16:58:37.178Z,4.97
2022-12-11T17:01:12.851Z,5.00
2022-12-11T17:03:40.938Z,5.18
2022-12-11T17:06:10.289Z,4.80
2022-12-11T17:08:37.438Z,4.53
2022-12-11T17:11:18.741Z,5.05
2022-12-11T17:13:45.917Z,4.07
2022-12-11T17:16:16.070Z,4.78
2022-12-11T17:18:43.592Z,4.68
2022-12-11T17:21:13.713Z,5.22
2022-12-11T17:23:41.220Z,5.10
2022-12-11T17:26:09.033Z,5.03
2022-12-11T17:28:36.818Z,5.40
2022-12-11T17:31:14.172Z,5.05
2022-12-11T17:33:41.106Z,6.00
2022-12-11T17:36:09.201Z,6.10
2022-12-11T17:38:36.493Z,6.03
2022-12-11T17:41:08.200Z,5.25
2022-12-11T17:43:35.260Z,5.25
2022-12-11T17:46:02.517Z,5.35
2022-12-11T17:48:29.680Z,5.35
2022-12-11T17:50:57.120Z,4.85
2022-12-11T17:53:24.567Z,5.45
2022-12-11T17:55:52.257Z,5.00
2022-12-11T17:58:22.079Z,5.57
2022-12-11T18:00:52.167Z,5.70
2022-12-11T18:03:19.156Z,6.13
2022-12-11T18:05:49.266Z,5.13
2022-12-11T18:08:21.720Z,5.90
2022-12-11T18:10:48.779Z,5.57
2022-12-11T18:13:15.789Z,6.05
2022-12-11T18:15:42.711Z,5.72
2022-12-11T18:18:10.037Z,5.97
2022-12-11T18:20:37.905Z,5.63
2022-12-11T18:23:05.903Z,5.55
2022-12-11T18:25:33.058Z,4.97
2022-12-11T18:28:00.305Z,5.65
2022-12-11T18:30:29.115Z,5.22
2022-12-11T18:32:56.074Z,5.32
2022-12-11T18:35:22.801Z,6.35
2022-12-11T18:37:49.569Z,6.13
2022-12-11T18:40:17.102Z,5.22
2022-12-11T18:42:43.837Z,5.32
2022-12-11T18:45:11.216Z,4.90
2022-12-11T18:47:38.573Z,6.28
2022-12-11T18:50:07.951Z,5.47
2022-12-11T18:52:35.291Z,5.68
2022-12-11T18:55:02.425Z,5.32
2022-12-11T18:57:29.213Z,5.47
2022-12-11T18:59:55.935Z,5.22
2022-12-11T19:02:22.940Z,6.30
2022-12-11T19:04:49.816Z,6.18
2022-12-11T19:07:16.649Z,6.25
2022-12-11T19:09:47.743Z,5.20
2022-12-11T19:12:15.405Z,4.97
2022-12-11T19:14:42.455Z,5.75
2022-12-11T19:17:09.408Z,6.00
2022-12-11T19:19:36.358Z,5.68
2022-12-11T19:22:04.219Z,6.00
2022-12-11T19:24:31.294Z,6.95
2022-12-11T19:26:58.148Z,5.28
2022-12-11T19:29:28.272Z,5.82
2022-12-11T19:31:55.831Z,6.18
2022-12-11T19:34:23.530Z,5.13
2022-12-11T19:36:50.524Z,5.63
2022-12-11T19:39:17.757Z,5.10
2022-12-11T19:41:44.752Z,4.88
2022-12-11T19:44:12.372Z,5.22
2022-12-11T19:46:39.721Z,5.18
2022-12-11T19:49:06.489Z,5.03
2022-12-11T19:51:39.217Z,4.97
2022-12-11T19:54:08.496Z,5.38
2022-12-11T19:56:36.251Z,5.88
2022-12-11T19:59:05.477Z,4.95
2022-12-11T20:01:33.984Z,5.00
2022-12-11T20:04:10.320Z,5.72
2022-12-11T20:06:38.928Z,4.70
2022-12-11T20:09:11.074Z,5.80
2022-12-11T20:11:40.702Z,4.97
2022-12-11T20:14:07.858Z,6.03
2022-12-11T20:17:02.174Z,4.85
2022-12-11T20:19:21.745Z,5.55
2022-12-11T20:21:48.741Z,5.20
2022-12-11T20:24:15.901Z,5.15
2022-12-11T20:26:43.177Z,5.32
2022-12-11T20:29:10.494Z,5.07
2022-12-11T20:31:37.771Z,5.20
2022-12-11T20:34:05.506Z,4.47
2022-12-11T20:36:32.933Z,5.60
2022-12-11T20:39:00.245Z,5.15
2022-12-11T20:41:28.049Z,5.28
2022-12-11T20:43:54.902Z,5.13
2022-12-11T20:46:25.770Z,5.45
2022-12-11T20:48:54.272Z,5.57
2022-12-11T20:51:26.140Z,4.22
2022-12-11T20:53:59.328Z,4.78
2022-12-11T20:56:30.118Z,5.22
2022-12-11T20:58:58.951Z,5.43
2022-12-11T21:01:28.940Z,5.13
2022-12-11T21:03:56.459Z,4.97
2022-12-11T21:06:26.664Z,4.80
2022-12-11T21:08:53.681Z,4.80
2022-12-11T21:11:20.834Z,4.75
2022-12-11T21:13:47.783Z,4.70
2022-12-11T21:16:14.981Z,4.97
2022-12-11T21:18:43.702Z,4.68
2022-12-11T21:21:10.590Z,5.55
2022-12-11T21:23:37.617Z,5.07
2022-12-11T21:26:04.996Z,4.45
2022-12-11T21:28:35.511Z,4.72
2022-12-11T21:31:05.937Z,5.07
2022-12-11T21:33:33.616Z,5.00
2022-12-11T21:36:01.120Z,4.53
2022-12-11T21:38:29.401Z,4.28
2022-12-11T21:40:57.140Z,4.25
2022-12-11T21:43:24.949Z,4.82
2022-12-11T21:46:00.829Z,4.65
2022-12-11T21:48:28.681Z,4.55
2022-12-11T21:50:56.208Z,4.40
2022-12-11T21:53:23.160Z,4.20
2022-12-11T21:55:49.945Z,4.03
2022-12-11T21:58:16.993Z,4.30
2022-12-11T22:00:45.791Z,4.47
2022-12-11T22:03:12.673Z,4.35
2022-12-11T22:05:39.590Z,4.35
2022-12-11T22:08:07.346Z,4.15
2022-12-11T22:10:34.471Z,5.22
2022-12-11T22:13:01.428Z,4.13
2022-12-11T22:15:28.380Z,5.10
2022-12-11T22:17:55.201Z,4.95
2022-12-11T22:20:22.165Z,4.53
2022-12-11T22:22:49.231Z,4.30
2022-12-11T22:25:16.021Z,3.88
2022-12-11T22:27:43.023Z,4.35
2022-12-11T22:30:11.459Z,4.18
2022-12-11T22:32:38.515Z,4.45
2022-12-11T22:35:05.645Z,4.22
2022-12-11T22:37:32.932Z,4.30
2022-12-11T22:40:00.059Z,4.15
2022-12-11T22:42:27.398Z,3.65
2022-12-11T22:44:54.157Z,4.25
2022-12-11T22:47:21.170Z,4.18
2022-12-11T22:49:48.096Z,4.20
2022-12-11T22:52:15.001Z,4.45
2022-12-11T22:54:42.728Z,5.03
2022-12-11T22:57:09.980Z,4.72
2022-12-11T22:59:37.008Z,4.00
2022-12-11T23:02:03.828Z,4.07
2022-12-11T23:04:30.968Z,4.13
2022-12-11T23:06:58.010Z,4.35
2022-12-11T23:09:25.540Z,4.65
2022-12-11T23:11:52.765Z,4.35
2022-12-11T23:14:19.732Z,4.63
2022-12-11T23:16:46.841Z,4.15
2022-12-11T23:19:14.177Z,4.40
2022-12-11T23:21:41.433Z,4.03
2022-12-11T23:24:09.114Z,4.07
2022-12-11T23:26:36.675Z,4.18
2022-12-11T23:29:05.288Z,4.25
2022-12-11T23:31:32.341Z,4.53
2022-12-11T23:33:59.901Z,4.53
2022-12-11T23:36:28.552Z,4.65
2022-12-11T23:38:55.862Z,3.53
2022-12-11T23:41:23.509Z,4.28
2022-12-11T23:43:50.437Z,4.47
2022-12-11T23:46:20.434Z,4.72
2022-12-11T23:48:47.521Z,4.40
2022-12-11T23:51:16.613Z,4.35
2022-12-11T23:53:43.783Z,4.18
2022-12-11T23:56:14.031Z,3.92
2022-12-11T23:58:41.685Z,4.88
